sensor_id;sensor_type;location;lat;lon;timestamp;P1;durP1;ratioP1;P2;durP2;ratioP2
66143;SDS011;52947;50.842;6.084;2023-04-28T00:01:12;14.40;;;7.90;;
66143;SDS011;52947;50.842;6.084;2023-04-28T00:03:52;17.60;;;8.45;;
66143;SDS011;52947;50.842;6.084;2023-04-28T00:06:51;15.85;;;8.05;;
66143;SDS011;52947;50.842;6.084;2023-04-28T00:12:42;9.40;;;4.63;;
66143;SDS011;52947;50.842;6.084;2023-04-28T00:15:10;9.55;;;5.82;;
66143;SDS011;52947;50.842;6.084;2023-04-28T00:20:48;14.27;;;7.15;;
66143;SDS011;52947;50.842;6.084;2023-04-28T00:23:36;10.73;;;6.57;;
66143;SDS011;52947;50.842;6.084;2023-04-28T00:29:40;12.88;;;7.03;;
66143;SDS011;52947;50.842;6.084;2023-04-28T00:32:26;11.00;;;5.90;;
66143;SDS011;52947;50.842;6.084;2023-04-28T00:35:24;12.82;;;5.65;;
66143;SDS011;52947;50.842;6.084;2023-04-28T00:38:10;11.63;;;6.90;;
66143;SDS011;52947;50.842;6.084;2023-04-28T00:40:39;10.70;;;5.35;;
66143;SDS011;52947;50.842;6.084;2023-04-28T00:43:13;11.77;;;5.88;;
66143;SDS011;52947;50.842;6.084;2023-04-28T00:46:11;10.05;;;6.20;;
66143;SDS011;52947;50.842;6.084;2023-04-28T00:48:55;12.23;;;5.95;;
66143;SDS011;52947;50.842;6.084;2023-04-28T00:52:01;12.30;;;6.53;;
66143;SDS011;52947;50.842;6.084;2023-04-28T00:55:01;12.07;;;5.88;;
66143;SDS011;52947;50.842;6.084;2023-04-28T00:57:48;11.65;;;5.57;;
66143;SDS011;52947;50.842;6.084;2023-04-28T01:03:21;11.23;;;7.10;;
66143;SDS011;52947;50.842;6.084;2023-04-28T01:06:44;12.35;;;6.03;;
66143;SDS011;52947;50.842;6.084;2023-04-28T01:09:38;11.88;;;6.20;;
66143;SDS011;52947;50.842;6.084;2023-04-28T01:12:20;13.20;;;7.47;;
66143;SDS011;52947;50.842;6.084;2023-04-28T01:15:11;13.88;;;7.30;;
66143;SDS011;52947;50.842;6.084;2023-04-28T01:18:05;15.88;;;7.78;;
66143;SDS011;52947;50.842;6.084;2023-04-28T01:20:40;12.27;;;7.45;;
66143;SDS011;52947;50.842;6.084;2023-04-28T01:23:20;12.45;;;5.53;;
66143;SDS011;52947;50.842;6.084;2023-04-28T01:26:08;15.35;;;7.20;;
66143;SDS011;52947;50.842;6.084;2023-04-28T01:29:00;9.90;;;7.07;;
66143;SDS011;52947;50.842;6.084;2023-04-28T01:31:51;11.95;;;5.60;;
66143;SDS011;52947;50.842;6.084;2023-04-28T01:34:49;13.00;;;6.68;;
66143;SDS011;52947;50.842;6.084;2023-04-28T01:38:05;13.15;;;6.80;;
66143;SDS011;52947;50.842;6.084;2023-04-28T01:40:59;13.27;;;6.10;;
66143;SDS011;52947;50.842;6.084;2023-04-28T01:43:46;9.25;;;5.65;;
66143;SDS011;52947;50.842;6.084;2023-04-28T01:49:00;12.93;;;6.40;;
66143;SDS011;52947;50.842;6.084;2023-04-28T01:51:58;12.15;;;7.13;;
66143;SDS011;52947;50.842;6.084;2023-04-28T01:54:56;12.73;;;8.10;;
66143;SDS011;52947;50.842;6.084;2023-04-28T01:57:36;14.40;;;8.20;;
66143;SDS011;52947;50.842;6.084;2023-04-28T02:00:17;13.77;;;7.57;;
66143;SDS011;52947;50.842;6.084;2023-04-28T02:03:33;14.25;;;7.93;;
66143;SDS011;52947;50.842;6.084;2023-04-28T02:06:28;12.32;;;7.75;;
66143;SDS011;52947;50.842;6.084;2023-04-28T02:09:22;17.95;;;7.80;;
66143;SDS011;52947;50.842;6.084;2023-04-28T02:12:20;14.32;;;7.85;;
66143;SDS011;52947;50.842;6.084;2023-04-28T02:14:59;15.55;;;8.48;;
66143;SDS011;52947;50.842;6.084;2023-04-28T02:17:48;15.32;;;7.22;;
66143;SDS011;52947;50.842;6.084;2023-04-28T02:20:47;14.10;;;7.15;;
66143;SDS011;52947;50.842;6.084;2023-04-28T02:23:16;12.70;;;7.15;;
66143;SDS011;52947;50.842;6.084;2023-04-28T02:26:11;14.93;;;7.13;;
66143;SDS011;52947;50.842;6.084;2023-04-28T02:29:22;13.45;;;6.95;;
66143;SDS011;52947;50.842;6.084;2023-04-28T02:32:43;16.35;;;6.72;;
66143;SDS011;52947;50.842;6.084;2023-04-28T02:35:30;13.75;;;6.53;;
66143;SDS011;52947;50.842;6.084;2023-04-28T02:38:35;11.98;;;7.07;;
66143;SDS011;52947;50.842;6.084;2023-04-28T02:41:57;8.65;;;6.60;;
66143;SDS011;52947;50.842;6.084;2023-04-28T02:45:13;9.07;;;6.47;;
66143;SDS011;52947;50.842;6.084;2023-04-28T02:48:12;12.35;;;6.55;;
66143;SDS011;52947;50.842;6.084;2023-04-28T02:57:05;14.32;;;7.55;;
66143;SDS011;52947;50.842;6.084;2023-04-28T02:59:56;10.23;;;7.13;;
66143;SDS011;52947;50.842;6.084;2023-04-28T03:05:44;11.43;;;6.95;;
66143;SDS011;52947;50.842;6.084;2023-04-28T03:09:06;10.27;;;6.75;;
66143;SDS011;52947;50.842;6.084;2023-04-28T03:12:05;11.75;;;7.88;;
66143;SDS011;52947;50.842;6.084;2023-04-28T03:17:26;12.90;;;7.47;;
66143;SDS011;52947;50.842;6.084;2023-04-28T03:20:13;13.43;;;7.68;;
66143;SDS011;52947;50.842;6.084;2023-04-28T03:23:01;13.45;;;8.18;;
66143;SDS011;52947;50.842;6.084;2023-04-28T03:25:42;15.18;;;7.55;;
66143;SDS011;52947;50.842;6.084;2023-04-28T03:28:34;10.68;;;6.50;;
66143;SDS011;52947;50.842;6.084;2023-04-28T03:31:32;11.88;;;6.78;;
66143;SDS011;52947;50.842;6.084;2023-04-28T03:34:24;11.63;;;7.22;;
66143;SDS011;52947;50.842;6.084;2023-04-28T03:37:16;9.60;;;5.78;;
66143;SDS011;52947;50.842;6.084;2023-04-28T03:39:58;11.57;;;6.40;;
66143;SDS011;52947;50.842;6.084;2023-04-28T03:42:58;10.52;;;6.55;;
66143;SDS011;52947;50.842;6.084;2023-04-28T03:46:10;10.32;;;6.45;;
66143;SDS011;52947;50.842;6.084;2023-04-28T03:49:02;11.77;;;6.35;;
66143;SDS011;52947;50.842;6.084;2023-04-28T03:52:12;10.80;;;5.65;;
66143;SDS011;52947;50.842;6.084;2023-04-28T03:55:24;13.10;;;6.10;;
66143;SDS011;52947;50.842;6.084;2023-04-28T04:00:56;11.18;;;5.80;;
66143;SDS011;52947;50.842;6.084;2023-04-28T04:03:32;10.50;;;5.70;;
66143;SDS011;52947;50.842;6.084;2023-04-28T04:06:06;10.43;;;5.53;;
66143;SDS011;52947;50.842;6.084;2023-04-28T04:08:47;9.15;;;5.57;;
66143;SDS011;52947;50.842;6.084;2023-04-28T04:11:28;11.38;;;5.65;;
66143;SDS011;52947;50.842;6.084;2023-04-28T04:14:08;12.05;;;5.22;;
66143;SDS011;52947;50.842;6.084;2023-04-28T04:17:06;10.73;;;5.30;;
66143;SDS011;52947;50.842;6.084;2023-04-28T04:19:58;8.80;;;4.72;;
66143;SDS011;52947;50.842;6.084;2023-04-28T04:22:51;6.22;;;4.65;;
66143;SDS011;52947;50.842;6.084;2023-04-28T04:25:37;7.03;;;4.65;;
66143;SDS011;52947;50.842;6.084;2023-04-28T04:28:19;8.40;;;4.90;;
66143;SDS011;52947;50.842;6.084;2023-04-28T04:38:15;10.35;;;5.32;;
66143;SDS011;52947;50.842;6.084;2023-04-28T04:41:26;9.32;;;4.70;;
66143;SDS011;52947;50.842;6.084;2023-04-28T04:44:18;7.32;;;5.55;;
66143;SDS011;52947;50.842;6.084;2023-04-28T04:47:16;10.15;;;5.38;;
66143;SDS011;52947;50.842;6.084;2023-04-28T04:49:57;8.90;;;5.22;;
66143;SDS011;52947;50.842;6.084;2023-04-28T04:52:32;12.25;;;5.50;;
66143;SDS011;52947;50.842;6.084;2023-04-28T04:55:13;7.95;;;5.80;;
66143;SDS011;52947;50.842;6.084;2023-04-28T04:57:47;8.82;;;5.60;;
66143;SDS011;52947;50.842;6.084;2023-04-28T05:00:35;8.13;;;5.88;;
66143;SDS011;52947;50.842;6.084;2023-04-28T05:03:34;9.90;;;6.40;;
66143;SDS011;52947;50.842;6.084;2023-04-28T05:06:15;12.18;;;5.90;;
66143;SDS011;52947;50.842;6.084;2023-04-28T05:09:04;10.82;;;6.25;;
66143;SDS011;52947;50.842;6.084;2023-04-28T05:11:50;11.02;;;6.05;;
66143;SDS011;52947;50.842;6.084;2023-04-28T05:18:26;9.45;;;5.68;;
66143;SDS011;52947;50.842;6.084;2023-04-28T05:21:24;13.25;;;6.45;;
66143;SDS011;52947;50.842;6.084;2023-04-28T05:24:05;11.15;;;6.13;;
66143;SDS011;52947;50.842;6.084;2023-04-28T05:27:00;13.70;;;6.32;;
66143;SDS011;52947;50.842;6.084;2023-04-28T05:29:54;10.05;;;5.47;;
66143;SDS011;52947;50.842;6.084;2023-04-28T05:35:18;8.35;;;4.85;;
66143;SDS011;52947;50.842;6.084;2023-04-28T05:37:53;11.75;;;5.47;;
66143;SDS011;52947;50.842;6.084;2023-04-28T05:40:27;7.95;;;5.68;;
66143;SDS011;52947;50.842;6.084;2023-04-28T05:43:13;6.63;;;4.57;;
66143;SDS011;52947;50.842;6.084;2023-04-28T05:45:47;11.38;;;5.15;;
66143;SDS011;52947;50.842;6.084;2023-04-28T05:48:21;8.93;;;4.25;;
66143;SDS011;52947;50.842;6.084;2023-04-28T05:51:04;9.52;;;4.47;;
66143;SDS011;52947;50.842;6.084;2023-04-28T05:53:57;9.02;;;4.28;;
66143;SDS011;52947;50.842;6.084;2023-04-28T05:56:48;10.95;;;5.30;;
66143;SDS011;52947;50.842;6.084;2023-04-28T05:59:28;13.50;;;5.18;;
66143;SDS011;52947;50.842;6.084;2023-04-28T06:02:11;8.80;;;5.57;;
66143;SDS011;52947;50.842;6.084;2023-04-28T06:05:10;7.22;;;4.40;;
66143;SDS011;52947;50.842;6.084;2023-04-28T06:08:05;8.60;;;4.85;;
66143;SDS011;52947;50.842;6.084;2023-04-28T06:10:39;6.53;;;4.10;;
66143;SDS011;52947;50.842;6.084;2023-04-28T06:13:31;8.50;;;5.13;;
66143;SDS011;52947;50.842;6.084;2023-04-28T06:16:11;7.85;;;5.45;;
66143;SDS011;52947;50.842;6.084;2023-04-28T06:18:51;10.48;;;4.97;;
66143;SDS011;52947;50.842;6.084;2023-04-28T06:21:37;9.30;;;5.95;;
66143;SDS011;52947;50.842;6.084;2023-04-28T06:24:21;6.28;;;5.07;;
66143;SDS011;52947;50.842;6.084;2023-04-28T06:27:15;10.85;;;4.57;;
66143;SDS011;52947;50.842;6.084;2023-04-28T06:30:01;9.98;;;4.82;;
66143;SDS011;52947;50.842;6.084;2023-04-28T06:35:28;11.05;;;5.45;;
66143;SDS011;52947;50.842;6.084;2023-04-28T06:38:20;8.85;;;5.40;;
66143;SDS011;52947;50.842;6.084;2023-04-28T06:41:05;10.30;;;4.32;;
66143;SDS011;52947;50.842;6.084;2023-04-28T06:44:01;7.28;;;4.70;;
66143;SDS011;52947;50.842;6.084;2023-04-28T06:46:43;15.50;;;4.70;;
66143;SDS011;52947;50.842;6.084;2023-04-28T06:52:40;9.40;;;5.53;;
66143;SDS011;52947;50.842;6.084;2023-04-28T06:55:19;7.78;;;4.18;;
66143;SDS011;52947;50.842;6.084;2023-04-28T06:58:00;7.45;;;4.18;;
66143;SDS011;52947;50.842;6.084;2023-04-28T07:03:39;7.57;;;4.57;;
66143;SDS011;52947;50.842;6.084;2023-04-28T07:09:12;8.77;;;3.97;;
66143;SDS011;52947;50.842;6.084;2023-04-28T07:12:18;8.10;;;3.83;;
66143;SDS011;52947;50.842;6.084;2023-04-28T07:14:52;6.40;;;3.88;;
66143;SDS011;52947;50.842;6.084;2023-04-28T07:17:38;8.20;;;4.32;;
66143;SDS011;52947;50.842;6.084;2023-04-28T07:20:18;7.22;;;4.18;;
66143;SDS011;52947;50.842;6.084;2023-04-28T07:23:21;8.40;;;3.67;;
66143;SDS011;52947;50.842;6.084;2023-04-28T07:26:02;8.13;;;4.13;;
66143;SDS011;52947;50.842;6.084;2023-04-28T07:28:42;6.57;;;4.57;;
66143;SDS011;52947;50.842;6.084;2023-04-28T07:31:18;8.15;;;4.38;;
66143;SDS011;52947;50.842;6.084;2023-04-28T07:34:16;5.30;;;3.72;;
66143;SDS011;52947;50.842;6.084;2023-04-28T07:36:50;7.22;;;3.78;;
66143;SDS011;52947;50.842;6.084;2023-04-28T07:39:49;5.55;;;3.95;;
66143;SDS011;52947;50.842;6.084;2023-04-28T07:42:23;4.97;;;3.38;;
66143;SDS011;52947;50.842;6.084;2023-04-28T07:45:03;4.35;;;2.97;;
66143;SDS011;52947;50.842;6.084;2023-04-28T07:47:50;4.47;;;2.85;;
66143;SDS011;52947;50.842;6.084;2023-04-28T07:51:31;4.95;;;2.70;;
66143;SDS011;52947;50.842;6.084;2023-04-28T07:54:05;2.90;;;2.50;;
66143;SDS011;52947;50.842;6.084;2023-04-28T07:56:39;3.72;;;3.15;;
66143;SDS011;52947;50.842;6.084;2023-04-28T07:59:24;3.38;;;2.75;;
66143;SDS011;52947;50.842;6.084;2023-04-28T08:02:18;3.17;;;2.45;;
66143;SDS011;52947;50.842;6.084;2023-04-28T08:05:19;4.43;;;2.67;;
66143;SDS011;52947;50.842;6.084;2023-04-28T08:08:29;2.72;;;2.20;;
66143;SDS011;52947;50.842;6.084;2023-04-28T08:11:33;5.45;;;2.60;;
66143;SDS011;52947;50.842;6.084;2023-04-28T08:14:19;4.20;;;2.10;;
66143;SDS011;52947;50.842;6.084;2023-04-28T08:16:53;2.38;;;1.95;;
66143;SDS011;52947;50.842;6.084;2023-04-28T08:19:46;2.78;;;2.10;;
66143;SDS011;52947;50.842;6.084;2023-04-28T08:22:45;3.40;;;2.30;;
66143;SDS011;52947;50.842;6.084;2023-04-28T08:25:49;1.95;;;1.75;;
66143;SDS011;52947;50.842;6.084;2023-04-28T08:28:40;2.28;;;1.77;;
66143;SDS011;52947;50.842;6.084;2023-04-28T08:31:20;5.38;;;1.65;;
66143;SDS011;52947;50.842;6.084;2023-04-28T08:34:00;1.40;;;1.30;;
66143;SDS011;52947;50.842;6.084;2023-04-28T08:36:29;1.48;;;1.27;;
66143;SDS011;52947;50.842;6.084;2023-04-28T08:39:10;1.90;;;1.35;;
66143;SDS011;52947;50.842;6.084;2023-04-28T08:42:15;2.22;;;1.10;;
66143;SDS011;52947;50.842;6.084;2023-04-28T08:45:03;1.38;;;1.27;;
66143;SDS011;52947;50.842;6.084;2023-04-28T08:47:52;2.65;;;1.25;;
66143;SDS011;52947;50.842;6.084;2023-04-28T08:50:55;1.42;;;1.33;;
66143;SDS011;52947;50.842;6.084;2023-04-28T08:54:01;2.42;;;1.52;;
66143;SDS011;52947;50.842;6.084;2023-04-28T08:57:10;2.05;;;1.50;;
66143;SDS011;52947;50.842;6.084;2023-04-28T09:00:03;4.95;;;1.83;;
66143;SDS011;52947;50.842;6.084;2023-04-28T09:02:55;2.42;;;1.90;;
66143;SDS011;52947;50.842;6.084;2023-04-28T09:05:30;2.03;;;1.70;;
66143;SDS011;52947;50.842;6.084;2023-04-28T09:08:29;2.38;;;2.17;;
66143;SDS011;52947;50.842;6.084;2023-04-28T09:11:28;3.88;;;2.60;;
66143;SDS011;52947;50.842;6.084;2023-04-28T09:14:28;3.72;;;2.20;;
66143;SDS011;52947;50.842;6.084;2023-04-28T09:17:21;2.42;;;2.22;;
66143;SDS011;52947;50.842;6.084;2023-04-28T09:20:31;2.97;;;2.53;;
66143;SDS011;52947;50.842;6.084;2023-04-28T09:23:19;2.20;;;2.00;;
66143;SDS011;52947;50.842;6.084;2023-04-28T09:26:13;3.65;;;3.08;;
66143;SDS011;52947;50.842;6.084;2023-04-28T09:29:11;2.50;;;2.30;;
66143;SDS011;52947;50.842;6.084;2023-04-28T09:31:45;6.95;;;5.70;;
66143;SDS011;52947;50.842;6.084;2023-04-28T09:34:44;7.38;;;5.15;;
66143;SDS011;52947;50.842;6.084;2023-04-28T09:37:37;3.72;;;3.00;;
66143;SDS011;52947;50.842;6.084;2023-04-28T09:40:47;3.70;;;3.10;;
66143;SDS011;52947;50.842;6.084;2023-04-28T09:43:29;4.22;;;3.00;;
66143;SDS011;52947;50.842;6.084;2023-04-28T09:46:17;5.18;;;3.80;;
66143;SDS011;52947;50.842;6.084;2023-04-28T09:49:01;4.38;;;3.50;;
66143;SDS011;52947;50.842;6.084;2023-04-28T09:52:10;4.68;;;3.88;;
66143;SDS011;52947;50.842;6.084;2023-04-28T09:55:02;3.65;;;2.70;;
66143;SDS011;52947;50.842;6.084;2023-04-28T09:57:43;4.32;;;3.63;;
66143;SDS011;52947;50.842;6.084;2023-04-28T10:01:02;3.83;;;3.42;;
66143;SDS011;52947;50.842;6.084;2023-04-28T10:04:10;2.75;;;2.45;;
66143;SDS011;52947;50.842;6.084;2023-04-28T10:06:57;3.15;;;2.25;;
66143;SDS011;52947;50.842;6.084;2023-04-28T10:09:50;2.83;;;1.95;;
66143;SDS011;52947;50.842;6.084;2023-04-28T10:13:01;2.42;;;2.13;;
66143;SDS011;52947;50.842;6.084;2023-04-28T10:16:06;3.38;;;2.40;;
66143;SDS011;52947;50.842;6.084;2023-04-28T10:18:53;2.30;;;1.80;;
66143;SDS011;52947;50.842;6.084;2023-04-28T10:21:58;3.05;;;2.00;;
66143;SDS011;52947;50.842;6.084;2023-04-28T10:24:52;2.42;;;2.10;;
66143;SDS011;52947;50.842;6.084;2023-04-28T10:27:53;2.58;;;2.38;;
66143;SDS011;52947;50.842;6.084;2023-04-28T10:30:39;2.42;;;2.13;;
66143;SDS011;52947;50.842;6.084;2023-04-28T10:33:58;3.03;;;2.53;;
66143;SDS011;52947;50.842;6.084;2023-04-28T10:37:14;3.22;;;2.50;;
66143;SDS011;52947;50.842;6.084;2023-04-28T10:42:50;5.90;;;2.70;;
66143;SDS011;52947;50.842;6.084;2023-04-28T10:51:35;2.35;;;1.98;;
66143;SDS011;52947;50.842;6.084;2023-04-28T10:54:28;1.95;;;1.65;;
66143;SDS011;52947;50.842;6.084;2023-04-28T10:57:14;2.45;;;2.25;;
66143;SDS011;52947;50.842;6.084;2023-04-28T11:00:26;2.55;;;2.13;;
66143;SDS011;52947;50.842;6.084;2023-04-28T11:03:40;2.15;;;1.95;;
66143;SDS011;52947;50.842;6.084;2023-04-28T11:06:29;4.03;;;2.05;;
66143;SDS011;52947;50.842;6.084;2023-04-28T11:12:18;2.47;;;2.00;;
66143;SDS011;52947;50.842;6.084;2023-04-28T11:15:11;2.63;;;2.05;;
66143;SDS011;52947;50.842;6.084;2023-04-28T11:23:50;2.65;;;2.30;;
66143;SDS011;52947;50.842;6.084;2023-04-28T11:26:38;2.67;;;2.42;;
66143;SDS011;52947;50.842;6.084;2023-04-28T11:29:29;3.55;;;2.65;;
66143;SDS011;52947;50.842;6.084;2023-04-28T11:32:15;2.90;;;2.25;;
66143;SDS011;52947;50.842;6.084;2023-04-28T11:35:08;4.38;;;3.28;;
66143;SDS011;52947;50.842;6.084;2023-04-28T11:38:00;6.93;;;5.57;;
66143;SDS011;52947;50.842;6.084;2023-04-28T11:43:31;9.45;;;8.50;;
66143;SDS011;52947;50.842;6.084;2023-04-28T11:46:15;4.50;;;3.05;;
66143;SDS011;52947;50.842;6.084;2023-04-28T11:49:03;2.75;;;2.20;;
66143;SDS011;52947;50.842;6.084;2023-04-28T11:52:08;3.60;;;3.28;;
66143;SDS011;52947;50.842;6.084;2023-04-28T11:55:07;7.82;;;5.70;;
66143;SDS011;52947;50.842;6.084;2023-04-28T11:58:18;7.40;;;3.60;;
66143;SDS011;52947;50.842;6.084;2023-04-28T12:06:46;3.33;;;2.80;;
66143;SDS011;52947;50.842;6.084;2023-04-28T12:09:43;3.53;;;3.20;;
66143;SDS011;52947;50.842;6.084;2023-04-28T12:12:56;5.13;;;3.20;;
66143;SDS011;52947;50.842;6.084;2023-04-28T12:15:39;3.05;;;2.60;;
66143;SDS011;52947;50.842;6.084;2023-04-28T12:18:56;6.05;;;4.22;;
66143;SDS011;52947;50.842;6.084;2023-04-28T12:22:10;5.78;;;3.33;;
66143;SDS011;52947;50.842;6.084;2023-04-28T12:25:16;5.82;;;4.35;;
66143;SDS011;52947;50.842;6.084;2023-04-28T12:28:20;4.53;;;3.33;;
66143;SDS011;52947;50.842;6.084;2023-04-28T12:31:02;6.75;;;3.33;;
66143;SDS011;52947;50.842;6.084;2023-04-28T12:34:07;3.47;;;2.90;;
66143;SDS011;52947;50.842;6.084;2023-04-28T12:36:59;2.65;;;2.28;;
66143;SDS011;52947;50.842;6.084;2023-04-28T12:39:45;2.30;;;2.10;;
66143;SDS011;52947;50.842;6.084;2023-04-28T12:42:36;3.03;;;2.47;;
66143;SDS011;52947;50.842;6.084;2023-04-28T12:45:28;2.60;;;2.03;;
66143;SDS011;52947;50.842;6.084;2023-04-28T12:51:25;3.42;;;2.95;;
66143;SDS011;52947;50.842;6.084;2023-04-28T12:54:13;3.17;;;2.00;;
66143;SDS011;52947;50.842;6.084;2023-04-28T12:57:23;2.75;;;1.80;;
66143;SDS011;52947;50.842;6.084;2023-04-28T13:12:23;2.85;;;2.20;;
66143;SDS011;52947;50.842;6.084;2023-04-28T13:15:21;6.55;;;2.30;;
66143;SDS011;52947;50.842;6.084;2023-04-28T13:18:19;3.30;;;2.50;;
66143;SDS011;52947;50.842;6.084;2023-04-28T13:21:35;2.45;;;2.25;;
66143;SDS011;52947;50.842;6.084;2023-04-28T13:24:28;1.70;;;1.53;;
66143;SDS011;52947;50.842;6.084;2023-04-28T13:26:56;1.45;;;1.35;;
66143;SDS011;52947;50.842;6.084;2023-04-28T13:30:01;2.75;;;1.50;;
66143;SDS011;52947;50.842;6.084;2023-04-28T13:32:53;2.58;;;1.30;;
66143;SDS011;52947;50.842;6.084;2023-04-28T13:35:41;1.92;;;1.10;;
66143;SDS011;52947;50.842;6.084;2023-04-28T13:41:47;4.13;;;1.70;;
66143;SDS011;52947;50.842;6.084;2023-04-28T13:47:35;11.95;;;7.13;;
66143;SDS011;52947;50.842;6.084;2023-04-28T13:53:44;19.65;;;14.48;;
66143;SDS011;52947;50.842;6.084;2023-04-28T13:56:36;7.35;;;4.28;;
66143;SDS011;52947;50.842;6.084;2023-04-28T13:59:25;9.25;;;5.18;;
66143;SDS011;52947;50.842;6.084;2023-04-28T14:11:56;15.07;;;7.43;;
66143;SDS011;52947;50.842;6.084;2023-04-28T14:18:13;4.95;;;2.40;;
66143;SDS011;52947;50.842;6.084;2023-04-28T14:21:04;9.07;;;4.13;;
66143;SDS011;52947;50.842;6.084;2023-04-28T14:24:03;3.53;;;2.05;;
66143;SDS011;52947;50.842;6.084;2023-04-28T14:26:43;7.68;;;2.03;;
66143;SDS011;52947;50.842;6.084;2023-04-28T14:29:18;5.65;;;2.65;;
66143;SDS011;52947;50.842;6.084;2023-04-28T14:32:36;6.20;;;2.90;;
66143;SDS011;52947;50.842;6.084;2023-04-28T14:35:29;4.65;;;2.50;;
66143;SDS011;52947;50.842;6.084;2023-04-28T14:38:09;7.07;;;3.65;;
66143;SDS011;52947;50.842;6.084;2023-04-28T14:40:49;4.18;;;2.25;;
66143;SDS011;52947;50.842;6.084;2023-04-28T14:43:41;7.20;;;1.70;;
66143;SDS011;52947;50.842;6.084;2023-04-28T14:50:03;2.33;;;1.63;;
66143;SDS011;52947;50.842;6.084;2023-04-28T15:05:15;3.88;;;2.63;;
66143;SDS011;52947;50.842;6.084;2023-04-28T15:08:12;4.03;;;2.85;;
66143;SDS011;52947;50.842;6.084;2023-04-28T15:10:43;6.20;;;5.03;;
66143;SDS011;52947;50.842;6.084;2023-04-28T15:13:11;6.05;;;5.40;;
66143;SDS011;52947;50.842;6.084;2023-04-28T15:16:09;2.88;;;2.40;;
66143;SDS011;52947;50.842;6.084;2023-04-28T15:19:01;6.15;;;4.90;;
66143;SDS011;52947;50.842;6.084;2023-04-28T15:21:48;3.65;;;2.65;;
66143;SDS011;52947;50.842;6.084;2023-04-28T15:24:53;3.92;;;2.47;;
66143;SDS011;52947;50.842;6.084;2023-04-28T15:27:45;4.07;;;2.30;;
66143;SDS011;52947;50.842;6.084;2023-04-28T15:30:56;5.45;;;3.13;;
66143;SDS011;52947;50.842;6.084;2023-04-28T15:33:30;3.22;;;1.80;;
66143;SDS011;52947;50.842;6.084;2023-04-28T15:36:16;3.10;;;1.50;;
66143;SDS011;52947;50.842;6.084;2023-04-28T15:39:27;3.17;;;2.30;;
66143;SDS011;52947;50.842;6.084;2023-04-28T15:42:24;5.45;;;3.40;;
66143;SDS011;52947;50.842;6.084;2023-04-28T15:45:07;3.70;;;1.63;;
66143;SDS011;52947;50.842;6.084;2023-04-28T15:51:00;2.25;;;1.90;;
66143;SDS011;52947;50.842;6.084;2023-04-28T15:53:52;2.00;;;1.80;;
66143;SDS011;52947;50.842;6.084;2023-04-28T15:56:58;2.95;;;2.10;;
66143;SDS011;52947;50.842;6.084;2023-04-28T16:00:16;2.72;;;1.88;;
66143;SDS011;52947;50.842;6.084;2023-04-28T16:03:02;1.70;;;1.60;;
66143;SDS011;52947;50.842;6.084;2023-04-28T16:05:30;2.05;;;1.80;;
66143;SDS011;52947;50.842;6.084;2023-04-28T16:08:00;8.43;;;2.05;;
66143;SDS011;52947;50.842;6.084;2023-04-28T16:10:33;2.95;;;2.38;;
66143;SDS011;52947;50.842;6.084;2023-04-28T16:13:32;4.10;;;2.40;;
66143;SDS011;52947;50.842;6.084;2023-04-28T16:16:26;2.70;;;2.15;;
66143;SDS011;52947;50.842;6.084;2023-04-28T16:19:07;2.60;;;2.20;;
66143;SDS011;52947;50.842;6.084;2023-04-28T16:22:11;2.20;;;2.00;;
66143;SDS011;52947;50.842;6.084;2023-04-28T16:27:56;1.35;;;1.25;;
66143;SDS011;52947;50.842;6.084;2023-04-28T16:30:37;2.25;;;2.05;;
66143;SDS011;52947;50.842;6.084;2023-04-28T16:33:06;6.10;;;3.13;;
66143;SDS011;52947;50.842;6.084;2023-04-28T16:36:16;18.73;;;10.63;;
66143;SDS011;52947;50.842;6.084;2023-04-28T16:39:16;3.45;;;2.25;;
66143;SDS011;52947;50.842;6.084;2023-04-28T16:42:08;11.77;;;6.20;;
66143;SDS011;52947;50.842;6.084;2023-04-28T16:44:42;6.20;;;3.95;;
66143;SDS011;52947;50.842;6.084;2023-04-28T16:47:30;19.88;;;11.38;;
66143;SDS011;52947;50.842;6.084;2023-04-28T16:50:05;12.05;;;5.95;;
66143;SDS011;52947;50.842;6.084;2023-04-28T16:52:45;1.83;;;1.30;;
66143;SDS011;52947;50.842;6.084;2023-04-28T16:55:30;1.60;;;1.50;;
66143;SDS011;52947;50.842;6.084;2023-04-28T16:58:10;3.38;;;1.70;;
66143;SDS011;52947;50.842;6.084;2023-04-28T17:01:13;2.17;;;1.98;;
66143;SDS011;52947;50.842;6.084;2023-04-28T17:03:50;1.63;;;1.52;;
66143;SDS011;52947;50.842;6.084;2023-04-28T17:06:18;2.10;;;1.20;;
66143;SDS011;52947;50.842;6.084;2023-04-28T17:09:05;2.42;;;1.20;;
66143;SDS011;52947;50.842;6.084;2023-04-28T17:11:53;1.92;;;1.20;;
66143;SDS011;52947;50.842;6.084;2023-04-28T17:14:50;1.70;;;1.60;;
66143;SDS011;52947;50.842;6.084;2023-04-28T17:17:26;2.53;;;1.80;;
66143;SDS011;52947;50.842;6.084;2023-04-28T17:20:14;2.78;;;1.23;;
66143;SDS011;52947;50.842;6.084;2023-04-28T17:22:47;1.40;;;1.30;;
66143;SDS011;52947;50.842;6.084;2023-04-28T17:25:45;1.40;;;1.30;;
66143;SDS011;52947;50.842;6.084;2023-04-28T17:28:32;5.78;;;2.92;;
66143;SDS011;52947;50.842;6.084;2023-04-28T17:31:15;5.63;;;2.70;;
66143;SDS011;52947;50.842;6.084;2023-04-28T17:34:12;3.25;;;2.35;;
66143;SDS011;52947;50.842;6.084;2023-04-28T17:36:48;3.22;;;2.50;;
66143;SDS011;52947;50.842;6.084;2023-04-28T17:39:34;4.68;;;4.10;;
66143;SDS011;52947;50.842;6.084;2023-04-28T17:42:08;2.20;;;1.77;;
66143;SDS011;52947;50.842;6.084;2023-04-28T17:44:42;3.67;;;2.58;;
66143;SDS011;52947;50.842;6.084;2023-04-28T17:47:34;2.83;;;1.70;;
66143;SDS011;52947;50.842;6.084;2023-04-28T17:50:29;11.52;;;9.27;;
66143;SDS011;52947;50.842;6.084;2023-04-28T17:53:04;3.13;;;1.50;;
66143;SDS011;52947;50.842;6.084;2023-04-28T17:55:49;2.10;;;1.90;;
66143;SDS011;52947;50.842;6.084;2023-04-28T18:01:15;2.88;;;2.60;;
66143;SDS011;52947;50.842;6.084;2023-04-28T18:04:19;2.22;;;1.83;;
66143;SDS011;52947;50.842;6.084;2023-04-28T18:07:24;3.53;;;2.97;;
66143;SDS011;52947;50.842;6.084;2023-04-28T18:10:30;1.92;;;1.58;;
66143;SDS011;52947;50.842;6.084;2023-04-28T18:13:29;1.60;;;1.40;;
66143;SDS011;52947;50.842;6.084;2023-04-28T18:16:20;2.78;;;1.58;;
66143;SDS011;52947;50.842;6.084;2023-04-28T18:19:06;2.42;;;1.60;;
66143;SDS011;52947;50.842;6.084;2023-04-28T18:21:45;3.38;;;1.60;;
66143;SDS011;52947;50.842;6.084;2023-04-28T18:24:13;1.90;;;1.80;;
66143;SDS011;52947;50.842;6.084;2023-04-28T18:26:48;2.05;;;1.67;;
66143;SDS011;52947;50.842;6.084;2023-04-28T18:32:26;3.22;;;2.35;;
66143;SDS011;52947;50.842;6.084;2023-04-28T18:35:21;5.93;;;3.60;;
66143;SDS011;52947;50.842;6.084;2023-04-28T18:38:00;13.25;;;9.30;;
66143;SDS011;52947;50.842;6.084;2023-04-28T18:40:40;5.88;;;2.65;;
66143;SDS011;52947;50.842;6.084;2023-04-28T18:43:58;3.13;;;2.50;;
66143;SDS011;52947;50.842;6.084;2023-04-28T18:46:38;12.10;;;8.43;;
66143;SDS011;52947;50.842;6.084;2023-04-28T18:49:31;4.30;;;3.10;;
66143;SDS011;52947;50.842;6.084;2023-04-28T18:52:17;5.18;;;3.35;;
66143;SDS011;52947;50.842;6.084;2023-04-28T18:54:50;5.82;;;3.75;;
66143;SDS011;52947;50.842;6.084;2023-04-28T18:57:30;8.13;;;6.50;;
66143;SDS011;52947;50.842;6.084;2023-04-28T19:00:13;3.35;;;2.50;;
66143;SDS011;52947;50.842;6.084;2023-04-28T19:03:05;3.35;;;2.60;;
66143;SDS011;52947;50.842;6.084;2023-04-28T19:06:21;5.15;;;2.58;;
66143;SDS011;52947;50.842;6.084;2023-04-28T19:09:19;5.20;;;2.00;;
66143;SDS011;52947;50.842;6.084;2023-04-28T19:12:04;6.47;;;1.60;;
66143;SDS011;52947;50.842;6.084;2023-04-28T19:14:50;2.97;;;2.67;;
66143;SDS011;52947;50.842;6.084;2023-04-28T19:17:26;2.15;;;1.67;;
66143;SDS011;52947;50.842;6.084;2023-04-28T19:20:24;3.40;;;2.20;;
66143;SDS011;52947;50.842;6.084;2023-04-28T19:23:10;3.38;;;1.90;;
66143;SDS011;52947;50.842;6.084;2023-04-28T19:25:49;3.05;;;1.90;;
66143;SDS011;52947;50.842;6.084;2023-04-28T19:28:42;2.80;;;1.90;;